sensor_id;sensor_type;location;lat;lon;timestamp;pressure;altitude;pressure_sealevel;temperature;humidity
75424;BME280;64005;55.160;36.002;2023-04-29T00:02:22;98953.22;;;5.08;76.86
75424;BME280;64005;55.160;36.002;2023-04-29T00:04:49;98949.94;;;5.06;77.53
75424;BME280;64005;55.160;36.002;2023-04-29T00:07:17;98939.13;;;5.09;77.15
75424;BME280;64005;55.160;36.002;2023-04-29T00:09:44;98944.66;;;5.09;76.83
75424;BME280;64005;55.160;36.002;2023-04-29T00:12:13;98944.13;;;5.07;77.59
75424;BME280;64005;55.160;36.002;2023-04-29T00:14:41;98947.50;;;5.04;77.51
75424;BME280;64005;55.160;36.002;2023-04-29T00:17:08;98947.19;;;5.06;76.82
75424;BME280;64005;55.160;36.002;2023-04-29T00:19:36;98944.75;;;5.04;77.26
75424;BME280;64005;55.160;36.002;2023-04-29T00:22:04;98944.75;;;5.04;76.94
75424;BME280;64005;55.160;36.002;2023-04-29T00:24:31;98952.19;;;5.04;77.18
75424;BME280;64005;55.160;36.002;2023-04-29T00:26:59;98947.50;;;5.04;77.01
75424;BME280;64005;55.160;36.002;2023-04-29T00:29:29;98943.09;;;5.03;77.19
75424;BME280;64005;55.160;36.002;2023-04-29T00:31:57;98949.44;;;5.04;77.17
75424;BME280;64005;55.160;36.002;2023-04-29T00:34:25;98951.06;;;5.05;77.51
75424;BME280;64005;55.160;36.002;2023-04-29T00:36:52;98944.94;;;5.08;77.23
75424;BME280;64005;55.160;36.002;2023-04-29T00:39:20;98929.31;;;5.03;77.01
75424;BME280;64005;55.160;36.002;2023-04-29T00:41:47;98932.06;;;5.03;77.71
75424;BME280;64005;55.160;36.002;2023-04-29T00:44:15;98935.41;;;5.00;77.95
75424;BME280;64005;55.160;36.002;2023-04-29T00:46:52;98927.53;;;4.94;77.17
75424;BME280;64005;55.160;36.002;2023-04-29T00:49:21;98929.28;;;4.90;78.30
75424;BME280;64005;55.160;36.002;2023-04-29T00:51:49;98929.56;;;4.88;77.85
75424;BME280;64005;55.160;36.002;2023-04-29T00:54:16;98940.38;;;4.85;77.89
75424;BME280;64005;55.160;36.002;2023-04-29T00:56:44;98920.28;;;4.84;77.54
75424;BME280;64005;55.160;36.002;2023-04-29T00:59:12;98927.44;;;4.85;77.16
75424;BME280;64005;55.160;36.002;2023-04-29T01:01:42;98925.47;;;4.86;78.16
75424;BME280;64005;55.160;36.002;2023-04-29T01:04:11;98924.97;;;4.84;77.40
75424;BME280;64005;55.160;36.002;2023-04-29T01:06:48;98921.59;;;4.87;77.50
75424;BME280;64005;55.160;36.002;2023-04-29T01:09:27;98922.69;;;4.86;77.40
75424;BME280;64005;55.160;36.002;2023-04-29T01:12:05;98921.91;;;4.85;77.91
75424;BME280;64005;55.160;36.002;2023-04-29T01:14:35;98918.94;;;4.82;77.84
75424;BME280;64005;55.160;36.002;2023-04-29T01:17:08;98910.91;;;4.66;77.82
75424;BME280;64005;55.160;36.002;2023-04-29T01:19:45;98914.19;;;4.68;77.96
75424;BME280;64005;55.160;36.002;2023-04-29T01:22:14;98924.91;;;4.70;78.39
75424;BME280;64005;55.160;36.002;2023-04-29T01:24:44;98920.50;;;4.69;78.15
75424;BME280;64005;55.160;36.002;2023-04-29T01:27:22;98921.63;;;4.68;78.31
75424;BME280;64005;55.160;36.002;2023-04-29T01:29:57;98922.00;;;4.61;77.96
75424;BME280;64005;55.160;36.002;2023-04-29T01:32:32;98924.38;;;4.68;77.13
75424;BME280;64005;55.160;36.002;2023-04-29T01:35:13;98928.41;;;4.75;77.56
75424;BME280;64005;55.160;36.002;2023-04-29T01:37:58;98904.88;;;4.64;77.45
75424;BME280;64005;55.160;36.002;2023-04-29T01:40:36;98934.63;;;4.81;77.81
75424;BME280;64005;55.160;36.002;2023-04-29T01:43:05;98933.72;;;4.86;76.98
75424;BME280;64005;55.160;36.002;2023-04-29T01:45:38;98921.38;;;4.83;77.15
75424;BME280;64005;55.160;36.002;2023-04-29T01:48:07;98936.34;;;4.96;77.63
75424;BME280;64005;55.160;36.002;2023-04-29T01:50:35;98952.78;;;5.01;76.93
75424;BME280;64005;55.160;36.002;2023-04-29T01:53:03;98941.38;;;5.07;77.58
75424;BME280;64005;55.160;36.002;2023-04-29T01:55:33;98939.72;;;5.06;76.61
75424;BME280;64005;55.160;36.002;2023-04-29T01:58:01;98943.44;;;5.15;77.43
75424;BME280;64005;55.160;36.002;2023-04-29T02:00:28;98960.19;;;5.19;77.60
75424;BME280;64005;55.160;36.002;2023-04-29T02:02:56;98943.97;;;5.17;77.37
75424;BME280;64005;55.160;36.002;2023-04-29T02:05:23;98948.84;;;5.20;77.24
75424;BME280;64005;55.160;36.002;2023-04-29T02:07:51;98950.88;;;5.15;77.62
75424;BME280;64005;55.160;36.002;2023-04-29T02:10:18;98951.41;;;5.17;76.73
75424;BME280;64005;55.160;36.002;2023-04-29T02:12:48;98957.13;;;5.20;77.17
75424;BME280;64005;55.160;36.002;2023-04-29T02:15:35;98962.41;;;5.03;77.41
75424;BME280;64005;55.160;36.002;2023-04-29T02:18:02;98939.38;;;4.94;76.93
75424;BME280;64005;55.160;36.002;2023-04-29T02:20:30;98966.72;;;5.09;77.17
75424;BME280;64005;55.160;36.002;2023-04-29T02:22:57;98947.28;;;5.01;77.24
75424;BME280;64005;55.160;36.002;2023-04-29T02:25:25;98954.03;;;5.08;77.61
75424;BME280;64005;55.160;36.002;2023-04-29T02:27:54;98963.72;;;5.06;77.62
75424;BME280;64005;55.160;36.002;2023-04-29T02:30:21;98939.78;;;4.88;77.57
75424;BME280;64005;55.160;36.002;2023-04-29T02:32:49;98976.00;;;5.13;77.49
75424;BME280;64005;55.160;36.002;2023-04-29T02:35:18;98966.03;;;5.17;78.13
75424;BME280;64005;55.160;36.002;2023-04-29T02:37:45;98972.66;;;5.16;78.06
75424;BME280;64005;55.160;36.002;2023-04-29T02:40:13;98978.31;;;5.25;77.30
75424;BME280;64005;55.160;36.002;2023-04-29T02:42:40;98979.91;;;5.26;77.19
75424;BME280;64005;55.160;36.002;2023-04-29T02:45:10;98982.09;;;5.29;77.73
75424;BME280;64005;55.160;36.002;2023-04-29T02:47:38;98987.59;;;5.29;77.59
75424;BME280;64005;55.160;36.002;2023-04-29T02:50:06;98992.81;;;5.31;77.91
75424;BME280;64005;55.160;36.002;2023-04-29T02:52:34;98985.38;;;5.31;77.92
75424;BME280;64005;55.160;36.002;2023-04-29T02:55:01;98980.34;;;5.33;76.96
75424;BME280;64005;55.160;36.002;2023-04-29T02:57:29;98973.00;;;5.29;77.22
75424;BME280;64005;55.160;36.002;2023-04-29T02:59:57;98995.69;;;5.39;77.27
75424;BME280;64005;55.160;36.002;2023-04-29T03:02:26;99010.00;;;5.41;77.34
75424;BME280;64005;55.160;36.002;2023-04-29T03:04:54;99003.91;;;5.44;76.52
75424;BME280;64005;55.160;36.002;2023-04-29T03:07:21;99006.25;;;5.51;76.83
75424;BME280;64005;55.160;36.002;2023-04-29T03:09:48;99005.88;;;5.57;77.10
75424;BME280;64005;55.160;36.002;2023-04-29T03:12:16;99006.69;;;5.58;76.54
75424;BME280;64005;55.160;36.002;2023-04-29T03:14:43;99012.50;;;5.56;76.86
75424;BME280;64005;55.160;36.002;2023-04-29T03:17:11;99014.44;;;5.56;76.68
75424;BME280;64005;55.160;36.002;2023-04-29T03:19:39;99021.50;;;5.62;76.43
75424;BME280;64005;55.160;36.002;2023-04-29T03:22:07;99028.38;;;5.65;76.88
75424;BME280;64005;55.160;36.002;2023-04-29T03:24:36;99037.38;;;5.70;76.24
75424;BME280;64005;55.160;36.002;2023-04-29T03:27:04;99047.78;;;5.73;76.64
75424;BME280;64005;55.160;36.002;2023-04-29T03:29:32;99043.31;;;5.77;77.10
75424;BME280;64005;55.160;36.002;2023-04-29T03:31:59;99040.16;;;5.84;75.65
75424;BME280;64005;55.160;36.002;2023-04-29T03:34:27;99052.31;;;5.83;76.62
75424;BME280;64005;55.160;36.002;2023-04-29T03:36:57;99054.56;;;5.81;76.74
75424;BME280;64005;55.160;36.002;2023-04-29T03:39:24;99052.25;;;5.88;76.16
75424;BME280;64005;55.160;36.002;2023-04-29T03:41:53;99047.97;;;5.95;76.16
75424;BME280;64005;55.160;36.002;2023-04-29T03:44:20;99055.22;;;6.05;76.30
75424;BME280;64005;55.160;36.002;2023-04-29T03:46:48;99053.91;;;6.03;76.58
75424;BME280;64005;55.160;36.002;2023-04-29T03:49:16;99044.09;;;6.10;75.42
75424;BME280;64005;55.160;36.002;2023-04-29T03:51:43;99049.13;;;6.22;76.34
75424;BME280;64005;55.160;36.002;2023-04-29T03:54:13;99050.53;;;6.33;75.27
75424;BME280;64005;55.160;36.002;2023-04-29T03:56:40;99034.72;;;6.25;75.73
75424;BME280;64005;55.160;36.002;2023-04-29T03:59:08;99055.78;;;6.48;75.61
75424;BME280;64005;55.160;36.002;2023-04-29T04:01:35;99060.28;;;6.58;75.41
75424;BME280;64005;55.160;36.002;2023-04-29T04:04:03;99054.94;;;6.61;74.89
75424;BME280;64005;55.160;36.002;2023-04-29T04:06:31;99067.13;;;6.60;74.68
75424;BME280;64005;55.160;36.002;2023-04-29T04:08:59;99064.66;;;6.59;75.37
75424;BME280;64005;55.160;36.002;2023-04-29T04:11:28;99071.00;;;6.73;74.90
75424;BME280;64005;55.160;36.002;2023-04-29T04:13:55;99069.66;;;6.84;75.28
75424;BME280;64005;55.160;36.002;2023-04-29T04:16:23;99070.13;;;7.00;74.86
75424;BME280;64005;55.160;36.002;2023-04-29T04:18:50;99068.81;;;6.97;74.86
75424;BME280;64005;55.160;36.002;2023-04-29T04:21:18;99071.19;;;6.90;75.04
75424;BME280;64005;55.160;36.002;2023-04-29T04:23:45;99070.78;;;6.83;74.53
75424;BME280;64005;55.160;36.002;2023-04-29T04:26:13;99074.69;;;6.82;74.42
75424;BME280;64005;55.160;36.002;2023-04-29T04:28:42;99064.22;;;6.79;74.86
75424;BME280;64005;55.160;36.002;2023-04-29T04:31:09;99070.53;;;6.93;74.75
75424;BME280;64005;55.160;36.002;2023-04-29T04:33:38;99070.44;;;6.98;74.68
75424;BME280;64005;55.160;36.002;2023-04-29T04:36:06;99068.56;;;7.07;74.26
75424;BME280;64005;55.160;36.002;2023-04-29T04:38:33;99062.59;;;7.14;73.54
75424;BME280;64005;55.160;36.002;2023-04-29T04:41:01;99075.78;;;7.31;73.28
75424;BME280;64005;55.160;36.002;2023-04-29T04:43:29;99073.75;;;7.45;73.17
75424;BME280;64005;55.160;36.002;2023-04-29T04:45:59;99068.22;;;7.45;73.20
75424;BME280;64005;55.160;36.002;2023-04-29T04:48:27;99074.09;;;7.43;73.14
75424;BME280;64005;55.160;36.002;2023-04-29T04:50:55;99077.41;;;7.54;72.72
75424;BME280;64005;55.160;36.002;2023-04-29T04:53:23;99079.75;;;7.61;72.52
75424;BME280;64005;55.160;36.002;2023-04-29T04:55:50;99074.66;;;7.76;72.03
75424;BME280;64005;55.160;36.002;2023-04-29T04:58:18;99086.34;;;7.95;71.58
75424;BME280;64005;55.160;36.002;2023-04-29T05:00:46;99079.06;;;8.08;70.84
75424;BME280;64005;55.160;36.002;2023-04-29T05:03:14;99089.16;;;8.04;71.20
75424;BME280;64005;55.160;36.002;2023-04-29T05:05:42;99077.34;;;7.90;71.65
75424;BME280;64005;55.160;36.002;2023-04-29T05:08:10;99085.59;;;7.81;71.77
75424;BME280;64005;55.160;36.002;2023-04-29T05:10:37;99088.13;;;7.69;71.27
75424;BME280;64005;55.160;36.002;2023-04-29T05:13:04;99085.50;;;7.64;71.66
75424;BME280;64005;55.160;36.002;2023-04-29T05:15:32;99091.81;;;7.65;71.72
75424;BME280;64005;55.160;36.002;2023-04-29T05:17:59;99093.78;;;7.64;71.84
75424;BME280;64005;55.160;36.002;2023-04-29T05:20:29;99082.34;;;7.57;71.44
75424;BME280;64005;55.160;36.002;2023-04-29T05:22:56;99094.72;;;7.82;71.24
75424;BME280;64005;55.160;36.002;2023-04-29T05:25:24;99098.91;;;8.02;70.64
75424;BME280;64005;55.160;36.002;2023-04-29T05:27:51;99099.75;;;8.02;70.50
75424;BME280;64005;55.160;36.002;2023-04-29T05:30:20;99099.16;;;7.91;70.78
75424;BME280;64005;55.160;36.002;2023-04-29T05:32:47;99105.22;;;7.93;71.31
75424;BME280;64005;55.160;36.002;2023-04-29T05:35:15;99098.03;;;7.92;70.69
75424;BME280;64005;55.160;36.002;2023-04-29T05:37:44;99088.44;;;7.90;71.03
75424;BME280;64005;55.160;36.002;2023-04-29T05:40:12;99105.59;;;8.01;70.71
75424;BME280;64005;55.160;36.002;2023-04-29T05:42:39;99111.81;;;8.06;70.66
75424;BME280;64005;55.160;36.002;2023-04-29T05:45:09;99107.97;;;8.16;70.59
75424;BME280;64005;55.160;36.002;2023-04-29T05:47:37;99118.34;;;8.32;70.23
75424;BME280;64005;55.160;36.002;2023-04-29T05:50:05;99114.78;;;8.41;69.67
75424;BME280;64005;55.160;36.002;2023-04-29T05:52:33;99120.50;;;8.35;69.39
75424;BME280;64005;55.160;36.002;2023-04-29T05:55:03;99117.84;;;8.30;69.28
75424;BME280;64005;55.160;36.002;2023-04-29T05:57:31;99116.91;;;8.35;69.41
75424;BME280;64005;55.160;36.002;2023-04-29T05:59:59;99126.03;;;8.35;68.25
75424;BME280;64005;55.160;36.002;2023-04-29T06:02:26;99122.16;;;8.45;68.20
75424;BME280;64005;55.160;36.002;2023-04-29T06:04:54;99128.97;;;8.39;67.21
75424;BME280;64005;55.160;36.002;2023-04-29T06:07:21;99135.84;;;8.42;66.62
75424;BME280;64005;55.160;36.002;2023-04-29T06:09:49;99139.75;;;8.41;66.81
75424;BME280;64005;55.160;36.002;2023-04-29T06:12:19;99129.53;;;8.50;66.74
75424;BME280;64005;55.160;36.002;2023-04-29T06:14:46;99131.66;;;8.53;65.72
75424;BME280;64005;55.160;36.002;2023-04-29T06:17:14;99131.84;;;8.65;65.50
75424;BME280;64005;55.160;36.002;2023-04-29T06:19:41;99137.63;;;8.77;65.32
75424;BME280;64005;55.160;36.002;2023-04-29T06:22:45;99092.00;;;8.52;65.12
75424;BME280;64005;55.160;36.002;2023-04-29T06:25:13;99120.88;;;8.91;64.50
75424;BME280;64005;55.160;36.002;2023-04-29T06:28:00;99132.69;;;9.22;64.16
75424;BME280;64005;55.160;36.002;2023-04-29T06:30:29;99137.09;;;9.40;63.39
75424;BME280;64005;55.160;36.002;2023-04-29T06:32:57;99147.41;;;9.48;62.58
75424;BME280;64005;55.160;36.002;2023-04-29T06:35:24;99142.31;;;9.25;62.47
75424;BME280;64005;55.160;36.002;2023-04-29T06:37:53;99144.94;;;9.21;62.11
75424;BME280;64005;55.160;36.002;2023-04-29T06:40:21;99135.28;;;9.18;59.94
75424;BME280;64005;55.160;36.002;2023-04-29T06:42:49;99149.47;;;9.08;59.53
75424;BME280;64005;55.160;36.002;2023-04-29T06:45:17;99146.38;;;9.18;59.81
75424;BME280;64005;55.160;36.002;2023-04-29T06:47:45;99147.72;;;9.47;59.54
75424;BME280;64005;55.160;36.002;2023-04-29T06:50:13;99160.16;;;9.58;58.79
75424;BME280;64005;55.160;36.002;2023-04-29T06:52:40;99165.22;;;9.56;57.58
75424;BME280;64005;55.160;36.002;2023-04-29T06:55:10;99162.28;;;9.70;56.86
75424;BME280;64005;55.160;36.002;2023-04-29T06:57:37;99155.91;;;9.86;57.24
75424;BME280;64005;55.160;36.002;2023-04-29T07:00:07;99152.63;;;10.02;57.23
75424;BME280;64005;55.160;36.002;2023-04-29T07:02:35;99169.63;;;10.17;57.07
75424;BME280;64005;55.160;36.002;2023-04-29T07:05:04;99170.56;;;10.39;57.13
75424;BME280;64005;55.160;36.002;2023-04-29T07:07:38;99186.22;;;10.60;56.24
75424;BME280;64005;55.160;36.002;2023-04-29T07:10:06;99177.75;;;10.48;55.20
75424;BME280;64005;55.160;36.002;2023-04-29T07:12:42;99179.88;;;10.51;54.94
75424;BME280;64005;55.160;36.002;2023-04-29T07:21:02;99179.19;;;10.63;51.67
75424;BME280;64005;55.160;36.002;2023-04-29T07:23:30;99188.13;;;10.77;51.86
75424;BME280;64005;55.160;36.002;2023-04-29T07:25:57;99186.84;;;10.74;51.69
75424;BME280;64005;55.160;36.002;2023-04-29T07:28:27;99037.88;;;9.92;50.34
75424;BME280;64005;55.160;36.002;2023-04-29T07:30:54;99096.69;;;10.20;49.95
75424;BME280;64005;55.160;36.002;2023-04-29T07:33:22;99161.53;;;10.59;49.27
75424;BME280;64005;55.160;36.002;2023-04-29T07:35:50;99194.03;;;11.13;48.66
75424;BME280;64005;55.160;36.002;2023-04-29T07:38:17;99193.03;;;11.18;47.82
75424;BME280;64005;55.160;36.002;2023-04-29T07:40:46;99200.31;;;11.02;47.13
75424;BME280;64005;55.160;36.002;2023-04-29T07:46:11;99106.19;;;10.66;47.64
75424;BME280;64005;55.160;36.002;2023-04-29T07:48:39;99202.06;;;11.15;47.94
75424;BME280;64005;55.160;36.002;2023-04-29T07:51:11;99205.25;;;10.96;47.08
75424;BME280;64005;55.160;36.002;2023-04-29T07:53:40;99204.56;;;11.08;47.03
75424;BME280;64005;55.160;36.002;2023-04-29T07:56:08;99207.19;;;11.34;47.08
75424;BME280;64005;55.160;36.002;2023-04-29T07:58:36;99215.59;;;11.54;47.05
75424;BME280;64005;55.160;36.002;2023-04-29T08:03:40;99212.00;;;12.37;45.14
75424;BME280;64005;55.160;36.002;2023-04-29T08:06:08;99209.31;;;12.28;44.87
75424;BME280;64005;55.160;36.002;2023-04-29T08:08:53;99214.31;;;11.81;46.25
75424;BME280;64005;55.160;36.002;2023-04-29T08:11:21;99221.75;;;11.39;46.00
75424;BME280;64005;55.160;36.002;2023-04-29T08:14:22;99219.50;;;11.33;46.03
75424;BME280;64005;55.160;36.002;2023-04-29T08:16:50;99106.81;;;10.71;45.78
75424;BME280;64005;55.160;36.002;2023-04-29T08:19:20;99102.03;;;11.10;46.06
75424;BME280;64005;55.160;36.002;2023-04-29T08:24:22;99221.34;;;12.41;43.80
75424;BME280;64005;55.160;36.002;2023-04-29T08:32:13;99221.97;;;12.05;42.53
75424;BME280;64005;55.160;36.002;2023-04-29T08:34:42;99230.34;;;11.84;42.81
75424;BME280;64005;55.160;36.002;2023-04-29T08:37:10;99224.91;;;12.09;43.46
75424;BME280;64005;55.160;36.002;2023-04-29T08:39:37;99223.66;;;12.39;42.86
75424;BME280;64005;55.160;36.002;2023-04-29T08:42:07;99235.66;;;12.85;41.88
75424;BME280;64005;55.160;36.002;2023-04-29T08:44:36;99220.78;;;12.48;40.39
75424;BME280;64005;55.160;36.002;2023-04-29T08:47:04;99209.78;;;12.30;40.35
75424;BME280;64005;55.160;36.002;2023-04-29T08:49:32;99225.25;;;12.61;40.20
75424;BME280;64005;55.160;36.002;2023-04-29T08:52:04;99222.28;;;12.45;40.27
75424;BME280;64005;55.160;36.002;2023-04-29T08:54:50;99223.16;;;12.37;40.60
75424;BME280;64005;55.160;36.002;2023-04-29T08:57:18;99226.34;;;12.15;40.30
75424;BME280;64005;55.160;36.002;2023-04-29T08:59:46;99227.00;;;12.12;41.32
75424;BME280;64005;55.160;36.002;2023-04-29T09:02:15;99223.03;;;12.33;41.69
75424;BME280;64005;55.160;36.002;2023-04-29T09:04:48;99228.63;;;12.66;41.45
75424;BME280;64005;55.160;36.002;2023-04-29T09:08:03;99229.00;;;12.77;40.81
75424;BME280;64005;55.160;36.002;2023-04-29T09:10:32;99229.88;;;13.02;40.55
75424;BME280;64005;55.160;36.002;2023-04-29T09:13:02;99232.00;;;12.72;38.65
75424;BME280;64005;55.160;36.002;2023-04-29T09:15:35;99229.50;;;12.46;39.89
75424;BME280;64005;55.160;36.002;2023-04-29T09:18:05;99227.81;;;12.66;40.17
75424;BME280;64005;55.160;36.002;2023-04-29T09:20:33;99241.00;;;12.90;40.71
75424;BME280;64005;55.160;36.002;2023-04-29T09:23:26;99245.84;;;12.68;39.71
75424;BME280;64005;55.160;36.002;2023-04-29T09:26:02;99239.53;;;12.59;39.39
75424;BME280;64005;55.160;36.002;2023-04-29T09:31:05;99238.22;;;12.57;38.14
75424;BME280;64005;55.160;36.002;2023-04-29T09:33:48;99229.41;;;12.55;38.09
75424;BME280;64005;55.160;36.002;2023-04-29T09:36:34;99246.22;;;12.79;38.17
75424;BME280;64005;55.160;36.002;2023-04-29T09:39:04;99248.22;;;12.91;37.58
75424;BME280;64005;55.160;36.002;2023-04-29T09:41:41;99251.16;;;13.06;37.42
75424;BME280;64005;55.160;36.002;2023-04-29T09:49:41;99212.38;;;12.81;37.40
75424;BME280;64005;55.160;36.002;2023-04-29T09:52:12;99172.19;;;12.16;37.91
75424;BME280;64005;55.160;36.002;2023-04-29T09:57:39;99262.38;;;12.41;37.45
75424;BME280;64005;55.160;36.002;2023-04-29T10:00:08;99266.06;;;12.65;36.91
75424;BME280;64005;55.160;36.002;2023-04-29T10:02:40;99246.44;;;12.74;35.86
75424;BME280;64005;55.160;36.002;2023-04-29T10:05:09;99253.44;;;13.13;36.62
75424;BME280;64005;55.160;36.002;2023-04-29T10:10:41;99273.13;;;13.29;35.72
75424;BME280;64005;55.160;36.002;2023-04-29T10:13:12;99262.97;;;13.36;35.42
75424;BME280;64005;55.160;36.002;2023-04-29T10:21:09;99277.56;;;14.43;35.34
75424;BME280;64005;55.160;36.002;2023-04-29T10:23:38;99266.47;;;14.46;34.74
75424;BME280;64005;55.160;36.002;2023-04-29T10:26:11;99291.75;;;13.98;34.30
75424;BME280;64005;55.160;36.002;2023-04-29T10:28:50;99287.09;;;13.41;34.51
75424;BME280;64005;55.160;36.002;2023-04-29T10:33:55;99292.56;;;13.37;34.97
75424;BME280;64005;55.160;36.002;2023-04-29T10:36:24;99288.38;;;13.43;34.94
75424;BME280;64005;55.160;36.002;2023-04-29T10:39:20;99287.56;;;13.79;34.45
75424;BME280;64005;55.160;36.002;2023-04-29T10:41:50;99291.19;;;14.44;34.39
75424;BME280;64005;55.160;36.002;2023-04-29T10:44:20;99290.88;;;14.74;33.49
75424;BME280;64005;55.160;36.002;2023-04-29T10:52:54;99295.88;;;14.96;33.17
75424;BME280;64005;55.160;36.002;2023-04-29T10:55:22;99294.00;;;14.44;33.21
75424;BME280;64005;55.160;36.002;2023-04-29T10:57:53;99290.56;;;13.99;33.33
75424;BME280;64005;55.160;36.002;2023-04-29T11:00:26;99303.50;;;14.03;33.39
75424;BME280;64005;55.160;36.002;2023-04-29T11:02:54;99296.50;;;14.21;32.85
75424;BME280;64005;55.160;36.002;2023-04-29T11:05:29;99302.94;;;14.62;33.04
75424;BME280;64005;55.160;36.002;2023-04-29T11:10:35;99299.88;;;14.67;31.79
75424;BME280;64005;55.160;36.002;2023-04-29T11:21:34;99317.03;;;13.40;33.90
75424;BME280;64005;55.160;36.002;2023-04-29T11:24:03;99190.78;;;12.57;34.13
75424;BME280;64005;55.160;36.002;2023-04-29T11:26:33;99315.41;;;13.64;33.36
75424;BME280;64005;55.160;36.002;2023-04-29T11:29:00;99323.34;;;13.86;33.05
75424;BME280;64005;55.160;36.002;2023-04-29T11:31:38;99326.13;;;13.74;32.71
75424;BME280;64005;55.160;36.002;2023-04-29T11:34:06;99331.72;;;13.86;32.26
75424;BME280;64005;55.160;36.002;2023-04-29T11:36:35;99326.47;;;13.97;32.60
75424;BME280;64005;55.160;36.002;2023-04-29T11:39:03;99324.50;;;14.09;32.65
75424;BME280;64005;55.160;36.002;2023-04-29T11:41:31;99319.34;;;14.11;33.15
75424;BME280;64005;55.160;36.002;2023-04-29T11:44:00;99204.06;;;13.66;33.05
75424;BME280;64005;55.160;36.002;2023-04-29T11:46:31;99195.00;;;14.09;32.13
75424;BME280;64005;55.160;36.002;2023-04-29T12:09:45;99324.47;;;15.01;31.42
75424;BME280;64005;55.160;36.002;2023-04-29T12:12:13;99229.16;;;13.90;32.58
75424;BME280;64005;55.160;36.002;2023-04-29T12:17:18;99315.28;;;13.72;33.25
75424;BME280;64005;55.160;36.002;2023-04-29T12:19:46;99309.00;;;13.51;33.40
75424;BME280;64005;55.160;36.002;2023-04-29T12:22:14;99306.66;;;13.41;33.42
75424;BME280;64005;55.160;36.002;2023-04-29T12:24:42;99305.28;;;13.47;33.64
75424;BME280;64005;55.160;36.002;2023-04-29T12:27:11;99306.22;;;13.87;33.43
75424;BME280;64005;55.160;36.002;2023-04-29T12:29:39;99315.00;;;14.26;33.00
75424;BME280;64005;55.160;36.002;2023-04-29T12:32:07;99300.69;;;14.67;32.54
75424;BME280;64005;55.160;36.002;2023-04-29T12:34:39;99304.28;;;14.96;31.93
75424;BME280;64005;55.160;36.002;2023-04-29T12:37:08;99302.25;;;15.24;31.46
75424;BME280;64005;55.160;36.002;2023-04-29T12:39:38;99273.59;;;15.31;31.49
75424;BME280;64005;55.160;36.002;2023-04-29T12:42:05;99304.81;;;15.45;30.56
75424;BME280;64005;55.160;36.002;2023-04-29T12:44:35;99305.34;;;15.35;30.18
75424;BME280;64005;55.160;36.002;2023-04-29T12:49:41;99312.84;;;15.31;30.80
75424;BME280;64005;55.160;36.002;2023-04-29T12:52:09;99318.44;;;15.15;29.84
75424;BME280;64005;55.160;36.002;2023-04-29T12:54:37;99299.66;;;15.16;29.82
75424;BME280;64005;55.160;36.002;2023-04-29T12:57:06;99303.72;;;15.34;30.01
75424;BME280;64005;55.160;36.002;2023-04-29T12:59:35;99311.69;;;15.32;29.40
75424;BME280;64005;55.160;36.002;2023-04-29T13:02:03;99305.75;;;15.05;28.90
75424;BME280;64005;55.160;36.002;2023-04-29T13:04:30;99317.25;;;15.16;29.37
75424;BME280;64005;55.160;36.002;2023-04-29T13:06:58;99292.09;;;15.04;29.20
75424;BME280;64005;55.160;36.002;2023-04-29T13:09:26;99303.38;;;15.35;29.45
75424;BME280;64005;55.160;36.002;2023-04-29T13:11:53;99311.31;;;15.49;29.15
75424;BME280;64005;55.160;36.002;2023-04-29T13:14:21;99311.31;;;15.33;28.61
75424;BME280;64005;55.160;36.002;2023-04-29T13:16:50;99314.81;;;15.15;29.04
75424;BME280;64005;55.160;36.002;2023-04-29T13:19:17;99312.50;;;15.32;29.26
75424;BME280;64005;55.160;36.002;2023-04-29T13:21:45;99307.44;;;15.38;28.74
75424;BME280;64005;55.160;36.002;2023-04-29T13:24:13;99316.28;;;15.24;29.29
75424;BME280;64005;55.160;36.002;2023-04-29T13:26:43;99320.19;;;15.35;29.21
75424;BME280;64005;55.160;36.002;2023-04-29T13:29:11;99305.09;;;15.40;29.31
75424;BME280;64005;55.160;36.002;2023-04-29T13:31:39;99304.28;;;15.39;29.29
75424;BME280;64005;55.160;36.002;2023-04-29T13:34:10;99297.03;;;15.38;29.77
75424;BME280;64005;55.160;36.002;2023-04-29T13:36:37;99300.72;;;15.42;29.42
75424;BME280;64005;55.160;36.002;2023-04-29T13:39:05;99300.09;;;15.33;29.58
75424;BME280;64005;55.160;36.002;2023-04-29T13:41:32;99306.00;;;15.28;29.32
75424;BME280;64005;55.160;36.002;2023-04-29T13:44:00;99305.75;;;15.05;28.73
75424;BME280;64005;55.160;36.002;2023-04-29T13:46:27;99295.38;;;15.06;28.87
75424;BME280;64005;55.160;36.002;2023-04-29T13:48:57;99300.44;;;15.16;28.87
75424;BME280;64005;55.160;36.002;2023-04-29T13:51:26;99287.53;;;14.84;28.71
75424;BME280;64005;55.160;36.002;2023-04-29T13:53:54;99301.94;;;14.70;28.92
75424;BME280;64005;55.160;36.002;2023-04-29T13:56:21;99305.75;;;14.62;28.86
75424;BME280;64005;55.160;36.002;2023-04-29T13:58:50;99299.28;;;14.74;29.10
75424;BME280;64005;55.160;36.002;2023-04-29T14:01:18;99300.22;;;14.65;29.37
75424;BME280;64005;55.160;36.002;2023-04-29T14:03:47;99294.25;;;14.39;29.70
75424;BME280;64005;55.160;36.002;2023-04-29T14:06:14;99300.72;;;14.15;29.77
75424;BME280;64005;55.160;36.002;2023-04-29T14:08:43;99292.53;;;14.10;30.26
75424;BME280;64005;55.160;36.002;2023-04-29T14:11:10;99288.66;;;14.27;30.14
75424;BME280;64005;55.160;36.002;2023-04-29T14:13:38;99293.31;;;14.47;30.27
75424;BME280;64005;55.160;36.002;2023-04-29T14:16:06;99295.91;;;14.68;30.05
75424;BME280;64005;55.160;36.002;2023-04-29T14:18:34;99290.47;;;14.87;29.96
75424;BME280;64005;55.160;36.002;2023-04-29T14:21:02;99291.66;;;15.02;29.71
75424;BME280;64005;55.160;36.002;2023-04-29T14:23:29;99298.81;;;15.15;30.00
75424;BME280;64005;55.160;36.002;2023-04-29T14:25:59;99295.75;;;15.20;29.51
75424;BME280;64005;55.160;36.002;2023-04-29T14:28:26;99278.78;;;15.29;29.56
75424;BME280;64005;55.160;36.002;2023-04-29T14:30:54;99281.72;;;15.36;29.37
75424;BME280;64005;55.160;36.002;2023-04-29T14:33:22;99284.53;;;15.36;29.35